sensor_id;sensor_type;location;lat;lon;timestamp;P1;durP1;ratioP1;P2;durP2;ratioP2
63945;SDS011;50122;56.330;43.838;2023-06-14T00:00:17;13.38;;;8.02;;
63945;SDS011;50122;56.330;43.838;2023-06-14T00:02:44;18.92;;;7.85;;
63945;SDS011;50122;56.330;43.838;2023-06-14T00:05:11;15.30;;;7.10;;
63945;SDS011;50122;56.330;43.838;2023-06-14T00:07:42;13.95;;;7.97;;
63945;SDS011;50122;56.330;43.838;2023-06-14T00:10:10;15.98;;;7.55;;
63945;SDS011;50122;56.330;43.838;2023-06-14T00:12:38;13.43;;;7.40;;
63945;SDS011;50122;56.330;43.838;2023-06-14T00:15:06;19.35;;;7.80;;
63945;SDS011;50122;56.330;43.838;2023-06-14T00:17:36;17.70;;;7.72;;
63945;SDS011;50122;56.330;43.838;2023-06-14T00:20:05;13.70;;;7.03;;
63945;SDS011;50122;56.330;43.838;2023-06-14T00:22:34;13.18;;;7.35;;
63945;SDS011;50122;56.330;43.838;2023-06-14T00:25:03;13.93;;;6.95;;
63945;SDS011;50122;56.330;43.838;2023-06-14T00:27:44;17.77;;;7.05;;
63945;SDS011;50122;56.330;43.838;2023-06-14T00:30:13;14.63;;;7.38;;
63945;SDS011;50122;56.330;43.838;2023-06-14T00:32:41;15.63;;;7.85;;
63945;SDS011;50122;56.330;43.838;2023-06-14T00:35:09;13.15;;;6.85;;
63945;SDS011;50122;56.330;43.838;2023-06-14T00:37:37;15.95;;;7.03;;
63945;SDS011;50122;56.330;43.838;2023-06-14T00:40:05;12.30;;;6.97;;
63945;SDS011;50122;56.330;43.838;2023-06-14T00:42:32;11.02;;;6.65;;
63945;SDS011;50122;56.330;43.838;2023-06-14T00:44:59;13.82;;;6.72;;
63945;SDS011;50122;56.330;43.838;2023-06-14T00:47:27;11.82;;;6.25;;
63945;SDS011;50122;56.330;43.838;2023-06-14T00:49:53;13.88;;;6.35;;
63945;SDS011;50122;56.330;43.838;2023-06-14T00:52:22;11.23;;;6.43;;
63945;SDS011;50122;56.330;43.838;2023-06-14T00:54:50;11.25;;;6.15;;
63945;SDS011;50122;56.330;43.838;2023-06-14T00:57:17;11.43;;;6.40;;
63945;SDS011;50122;56.330;43.838;2023-06-14T00:59:45;11.48;;;5.90;;
63945;SDS011;50122;56.330;43.838;2023-06-14T01:02:13;11.82;;;6.03;;
63945;SDS011;50122;56.330;43.838;2023-06-14T01:04:45;10.93;;;5.93;;
63945;SDS011;50122;56.330;43.838;2023-06-14T01:13:15;10.93;;;6.00;;
63945;SDS011;50122;56.330;43.838;2023-06-14T01:15:46;12.13;;;5.65;;
63945;SDS011;50122;56.330;43.838;2023-06-14T01:18:14;11.10;;;5.72;;
63945;SDS011;50122;56.330;43.838;2023-06-14T01:20:45;11.98;;;5.93;;
63945;SDS011;50122;56.330;43.838;2023-06-14T01:23:17;9.98;;;5.57;;
63945;SDS011;50122;56.330;43.838;2023-06-14T01:25:45;10.50;;;5.80;;
63945;SDS011;50122;56.330;43.838;2023-06-14T01:28:13;10.10;;;5.60;;
63945;SDS011;50122;56.330;43.838;2023-06-14T01:30:45;11.52;;;5.20;;
63945;SDS011;50122;56.330;43.838;2023-06-14T01:33:16;10.10;;;5.00;;
63945;SDS011;50122;56.330;43.838;2023-06-14T01:35:47;8.68;;;4.57;;
63945;SDS011;50122;56.330;43.838;2023-06-14T01:38:17;8.13;;;4.20;;
63945;SDS011;50122;56.330;43.838;2023-06-14T01:40:45;7.70;;;4.20;;
63945;SDS011;50122;56.330;43.838;2023-06-14T01:43:15;7.22;;;4.10;;
63945;SDS011;50122;56.330;43.838;2023-06-14T01:45:42;8.32;;;4.00;;
63945;SDS011;50122;56.330;43.838;2023-06-14T01:48:11;6.57;;;3.55;;
63945;SDS011;50122;56.330;43.838;2023-06-14T01:50:39;6.97;;;3.10;;
63945;SDS011;50122;56.330;43.838;2023-06-14T01:53:07;5.72;;;3.33;;
63945;SDS011;50122;56.330;43.838;2023-06-14T01:55:35;5.60;;;3.38;;
63945;SDS011;50122;56.330;43.838;2023-06-14T01:58:04;5.78;;;3.30;;
63945;SDS011;50122;56.330;43.838;2023-06-14T02:00:31;8.82;;;3.45;;
63945;SDS011;50122;56.330;43.838;2023-06-14T02:02:58;7.35;;;3.30;;
63945;SDS011;50122;56.330;43.838;2023-06-14T02:05:28;8.02;;;3.30;;
63945;SDS011;50122;56.330;43.838;2023-06-14T02:07:54;8.20;;;3.30;;
63945;SDS011;50122;56.330;43.838;2023-06-14T02:10:21;8.75;;;3.28;;
63945;SDS011;50122;56.330;43.838;2023-06-14T02:12:48;4.88;;;2.75;;
63945;SDS011;50122;56.330;43.838;2023-06-14T02:15:18;6.45;;;3.38;;
63945;SDS011;50122;56.330;43.838;2023-06-14T02:17:46;8.50;;;3.72;;
63945;SDS011;50122;56.330;43.838;2023-06-14T02:20:14;8.88;;;2.85;;
63945;SDS011;50122;56.330;43.838;2023-06-14T02:22:41;12.38;;;3.30;;
63945;SDS011;50122;56.330;43.838;2023-06-14T02:25:08;7.25;;;3.17;;
63945;SDS011;50122;56.330;43.838;2023-06-14T02:27:35;7.82;;;3.35;;
63945;SDS011;50122;56.330;43.838;2023-06-14T02:30:02;7.60;;;3.40;;
63945;SDS011;50122;56.330;43.838;2023-06-14T02:32:29;10.07;;;3.17;;
63945;SDS011;50122;56.330;43.838;2023-06-14T02:34:56;10.25;;;3.20;;
63945;SDS011;50122;56.330;43.838;2023-06-14T02:37:23;9.63;;;3.55;;
63945;SDS011;50122;56.330;43.838;2023-06-14T02:39:50;8.32;;;3.72;;
63945;SDS011;50122;56.330;43.838;2023-06-14T02:42:17;8.05;;;3.47;;
63945;SDS011;50122;56.330;43.838;2023-06-14T02:44:44;6.15;;;3.25;;
63945;SDS011;50122;56.330;43.838;2023-06-14T02:47:12;7.60;;;3.75;;
63945;SDS011;50122;56.330;43.838;2023-06-14T02:49:40;8.68;;;3.38;;
63945;SDS011;50122;56.330;43.838;2023-06-14T02:52:07;7.28;;;3.28;;
63945;SDS011;50122;56.330;43.838;2023-06-14T02:54:35;8.85;;;3.60;;
63945;SDS011;50122;56.330;43.838;2023-06-14T02:57:04;5.60;;;2.90;;
63945;SDS011;50122;56.330;43.838;2023-06-14T02:59:33;9.48;;;3.78;;
63945;SDS011;50122;56.330;43.838;2023-06-14T03:02:01;11.38;;;3.60;;
63945;SDS011;50122;56.330;43.838;2023-06-14T03:04:29;7.65;;;3.42;;
63945;SDS011;50122;56.330;43.838;2023-06-14T03:06:59;7.00;;;3.78;;
63945;SDS011;50122;56.330;43.838;2023-06-14T03:09:26;9.85;;;3.30;;
63945;SDS011;50122;56.330;43.838;2023-06-14T03:11:54;7.55;;;3.35;;
63945;SDS011;50122;56.330;43.838;2023-06-14T03:14:21;9.85;;;3.58;;
63945;SDS011;50122;56.330;43.838;2023-06-14T03:16:49;9.10;;;3.33;;
63945;SDS011;50122;56.330;43.838;2023-06-14T03:19:17;11.85;;;3.25;;
63945;SDS011;50122;56.330;43.838;2023-06-14T03:21:43;8.43;;;3.10;;
63945;SDS011;50122;56.330;43.838;2023-06-14T03:24:11;7.45;;;3.30;;
63945;SDS011;50122;56.330;43.838;2023-06-14T03:26:38;11.02;;;3.15;;
63945;SDS011;50122;56.330;43.838;2023-06-14T03:29:04;6.50;;;2.90;;
63945;SDS011;50122;56.330;43.838;2023-06-14T03:31:31;7.05;;;3.30;;
63945;SDS011;50122;56.330;43.838;2023-06-14T03:33:59;8.75;;;3.50;;
63945;SDS011;50122;56.330;43.838;2023-06-14T03:36:26;6.85;;;3.20;;
63945;SDS011;50122;56.330;43.838;2023-06-14T03:38:54;7.43;;;3.15;;
63945;SDS011;50122;56.330;43.838;2023-06-14T03:41:23;10.27;;;4.03;;
63945;SDS011;50122;56.330;43.838;2023-06-14T03:43:50;9.27;;;3.58;;
63945;SDS011;50122;56.330;43.838;2023-06-14T03:46:17;8.55;;;3.42;;
63945;SDS011;50122;56.330;43.838;2023-06-14T03:48:44;11.40;;;3.85;;
63945;SDS011;50122;56.330;43.838;2023-06-14T03:51:11;9.60;;;3.30;;
63945;SDS011;50122;56.330;43.838;2023-06-14T03:53:38;10.80;;;3.30;;
63945;SDS011;50122;56.330;43.838;2023-06-14T03:56:25;8.27;;;3.28;;
63945;SDS011;50122;56.330;43.838;2023-06-14T03:58:53;5.53;;;2.85;;
63945;SDS011;50122;56.330;43.838;2023-06-14T04:01:21;6.07;;;2.90;;
63945;SDS011;50122;56.330;43.838;2023-06-14T04:03:51;12.65;;;2.78;;
63945;SDS011;50122;56.330;43.838;2023-06-14T04:06:21;11.80;;;3.40;;
63945;SDS011;50122;56.330;43.838;2023-06-14T04:08:48;8.90;;;3.03;;
63945;SDS011;50122;56.330;43.838;2023-06-14T04:11:15;8.48;;;2.88;;
63945;SDS011;50122;56.330;43.838;2023-06-14T04:13:42;6.85;;;2.90;;
63945;SDS011;50122;56.330;43.838;2023-06-14T04:16:09;12.10;;;3.20;;
63945;SDS011;50122;56.330;43.838;2023-06-14T04:18:37;9.85;;;2.80;;
63945;SDS011;50122;56.330;43.838;2023-06-14T04:21:09;9.38;;;2.65;;
63945;SDS011;50122;56.330;43.838;2023-06-14T04:23:36;12.25;;;2.72;;
63945;SDS011;50122;56.330;43.838;2023-06-14T04:26:04;10.48;;;2.95;;
63945;SDS011;50122;56.330;43.838;2023-06-14T04:28:31;11.15;;;3.00;;
63945;SDS011;50122;56.330;43.838;2023-06-14T04:30:58;7.75;;;2.70;;
63945;SDS011;50122;56.330;43.838;2023-06-14T04:33:27;6.70;;;2.47;;
63945;SDS011;50122;56.330;43.838;2023-06-14T04:35:56;10.85;;;3.20;;
63945;SDS011;50122;56.330;43.838;2023-06-14T04:38:23;11.40;;;2.75;;
63945;SDS011;50122;56.330;43.838;2023-06-14T04:40:51;12.20;;;3.20;;
63945;SDS011;50122;56.330;43.838;2023-06-14T04:43:20;14.18;;;3.60;;
63945;SDS011;50122;56.330;43.838;2023-06-14T04:45:54;13.10;;;3.40;;
63945;SDS011;50122;56.330;43.838;2023-06-14T04:48:24;7.35;;;3.25;;
63945;SDS011;50122;56.330;43.838;2023-06-14T04:50:51;7.22;;;3.28;;
63945;SDS011;50122;56.330;43.838;2023-06-14T04:53:19;8.75;;;3.10;;
63945;SDS011;50122;56.330;43.838;2023-06-14T04:56:01;8.10;;;3.17;;
63945;SDS011;50122;56.330;43.838;2023-06-14T04:58:35;8.23;;;3.35;;
63945;SDS011;50122;56.330;43.838;2023-06-14T05:01:02;7.20;;;3.38;;
63945;SDS011;50122;56.330;43.838;2023-06-14T05:03:37;8.70;;;3.00;;
63945;SDS011;50122;56.330;43.838;2023-06-14T05:06:04;8.68;;;3.30;;
63945;SDS011;50122;56.330;43.838;2023-06-14T05:08:32;15.77;;;3.70;;
63945;SDS011;50122;56.330;43.838;2023-06-14T05:10:59;16.77;;;3.35;;
63945;SDS011;50122;56.330;43.838;2023-06-14T05:13:27;11.07;;;3.17;;
63945;SDS011;50122;56.330;43.838;2023-06-14T05:15:54;5.97;;;3.00;;
63945;SDS011;50122;56.330;43.838;2023-06-14T05:18:22;18.48;;;3.33;;
63945;SDS011;50122;56.330;43.838;2023-06-14T05:20:50;11.02;;;2.97;;
63945;SDS011;50122;56.330;43.838;2023-06-14T05:23:17;12.05;;;3.30;;
63945;SDS011;50122;56.330;43.838;2023-06-14T05:25:44;9.63;;;3.00;;
63945;SDS011;50122;56.330;43.838;2023-06-14T05:28:11;9.73;;;3.28;;
63945;SDS011;50122;56.330;43.838;2023-06-14T05:30:38;9.45;;;3.03;;
63945;SDS011;50122;56.330;43.838;2023-06-14T05:33:08;8.73;;;3.25;;
63945;SDS011;50122;56.330;43.838;2023-06-14T05:35:37;8.98;;;3.00;;
63945;SDS011;50122;56.330;43.838;2023-06-14T05:38:04;11.73;;;3.28;;
63945;SDS011;50122;56.330;43.838;2023-06-14T05:40:32;156.52;;;10.32;;
63945;SDS011;50122;56.330;43.838;2023-06-14T05:42:58;76.80;;;7.40;;
63945;SDS011;50122;56.330;43.838;2023-06-14T05:45:25;50.40;;;4.93;;
63945;SDS011;50122;56.330;43.838;2023-06-14T05:47:52;23.10;;;3.70;;
63945;SDS011;50122;56.330;43.838;2023-06-14T05:50:21;11.77;;;3.00;;
63945;SDS011;50122;56.330;43.838;2023-06-14T05:52:48;8.98;;;2.88;;
63945;SDS011;50122;56.330;43.838;2023-06-14T05:55:15;11.57;;;3.10;;
63945;SDS011;50122;56.330;43.838;2023-06-14T05:57:45;10.10;;;2.80;;
63945;SDS011;50122;56.330;43.838;2023-06-14T06:00:14;6.57;;;3.20;;
63945;SDS011;50122;56.330;43.838;2023-06-14T06:02:42;10.05;;;2.95;;
63945;SDS011;50122;56.330;43.838;2023-06-14T06:05:11;10.13;;;2.92;;
63945;SDS011;50122;56.330;43.838;2023-06-14T06:07:39;10.07;;;3.08;;
63945;SDS011;50122;56.330;43.838;2023-06-14T06:10:12;6.88;;;2.60;;
63945;SDS011;50122;56.330;43.838;2023-06-14T06:12:39;10.45;;;3.00;;
63945;SDS011;50122;56.330;43.838;2023-06-14T06:15:07;8.60;;;2.95;;
63945;SDS011;50122;56.330;43.838;2023-06-14T06:17:34;15.50;;;2.95;;
63945;SDS011;50122;56.330;43.838;2023-06-14T06:20:20;9.23;;;2.85;;
63945;SDS011;50122;56.330;43.838;2023-06-14T06:22:48;6.03;;;2.80;;
63945;SDS011;50122;56.330;43.838;2023-06-14T06:25:15;10.13;;;2.92;;
63945;SDS011;50122;56.330;43.838;2023-06-14T06:27:43;11.02;;;2.88;;
63945;SDS011;50122;56.330;43.838;2023-06-14T06:30:10;8.18;;;2.80;;
63945;SDS011;50122;56.330;43.838;2023-06-14T06:32:37;7.53;;;2.90;;
63945;SDS011;50122;56.330;43.838;2023-06-14T06:35:04;11.57;;;2.90;;
63945;SDS011;50122;56.330;43.838;2023-06-14T06:37:35;7.72;;;2.65;;
63945;SDS011;50122;56.330;43.838;2023-06-14T06:40:02;9.60;;;2.60;;
63945;SDS011;50122;56.330;43.838;2023-06-14T06:42:30;8.38;;;3.03;;
63945;SDS011;50122;56.330;43.838;2023-06-14T06:44:57;6.15;;;2.60;;
63945;SDS011;50122;56.330;43.838;2023-06-14T06:47:24;5.53;;;2.55;;
63945;SDS011;50122;56.330;43.838;2023-06-14T06:49:51;7.38;;;2.35;;
63945;SDS011;50122;56.330;43.838;2023-06-14T06:52:19;7.75;;;2.38;;
63945;SDS011;50122;56.330;43.838;2023-06-14T06:54:45;7.05;;;2.38;;
63945;SDS011;50122;56.330;43.838;2023-06-14T06:57:12;14.75;;;2.70;;
63945;SDS011;50122;56.330;43.838;2023-06-14T06:59:40;8.40;;;2.50;;
63945;SDS011;50122;56.330;43.838;2023-06-14T07:02:07;9.25;;;2.60;;
63945;SDS011;50122;56.330;43.838;2023-06-14T07:04:33;7.00;;;2.58;;
63945;SDS011;50122;56.330;43.838;2023-06-14T07:07:01;7.95;;;2.85;;
63945;SDS011;50122;56.330;43.838;2023-06-14T07:09:27;7.68;;;2.90;;
63945;SDS011;50122;56.330;43.838;2023-06-14T07:11:54;8.35;;;2.58;;
63945;SDS011;50122;56.330;43.838;2023-06-14T07:14:22;5.45;;;2.28;;
63945;SDS011;50122;56.330;43.838;2023-06-14T07:16:49;4.90;;;2.35;;
63945;SDS011;50122;56.330;43.838;2023-06-14T07:19:16;6.22;;;2.70;;
63945;SDS011;50122;56.330;43.838;2023-06-14T07:21:44;6.63;;;2.75;;
63945;SDS011;50122;56.330;43.838;2023-06-14T07:24:10;7.45;;;2.72;;
63945;SDS011;50122;56.330;43.838;2023-06-14T07:26:38;4.93;;;2.40;;
63945;SDS011;50122;56.330;43.838;2023-06-14T07:29:06;6.53;;;2.50;;
63945;SDS011;50122;56.330;43.838;2023-06-14T07:31:33;27.15;;;3.50;;
63945;SDS011;50122;56.330;43.838;2023-06-14T07:33:59;8.40;;;2.55;;
63945;SDS011;50122;56.330;43.838;2023-06-14T07:36:26;8.35;;;2.63;;
63945;SDS011;50122;56.330;43.838;2023-06-14T07:38:53;5.40;;;2.42;;
63945;SDS011;50122;56.330;43.838;2023-06-14T07:41:20;9.30;;;2.15;;
63945;SDS011;50122;56.330;43.838;2023-06-14T07:43:47;4.93;;;2.10;;
63945;SDS011;50122;56.330;43.838;2023-06-14T07:46:13;7.18;;;2.50;;
63945;SDS011;50122;56.330;43.838;2023-06-14T07:48:40;9.73;;;2.65;;
63945;SDS011;50122;56.330;43.838;2023-06-14T07:51:09;4.60;;;2.63;;
63945;SDS011;50122;56.330;43.838;2023-06-14T07:53:36;8.98;;;2.53;;
63945;SDS011;50122;56.330;43.838;2023-06-14T07:56:03;10.20;;;2.92;;
63945;SDS011;50122;56.330;43.838;2023-06-14T07:58:30;8.07;;;2.70;;
63945;SDS011;50122;56.330;43.838;2023-06-14T08:00:57;7.82;;;2.90;;
63945;SDS011;50122;56.330;43.838;2023-06-14T08:03:23;9.35;;;2.53;;
63945;SDS011;50122;56.330;43.838;2023-06-14T08:05:50;9.40;;;2.58;;
63945;SDS011;50122;56.330;43.838;2023-06-14T08:08:17;8.20;;;2.50;;
63945;SDS011;50122;56.330;43.838;2023-06-14T08:10:44;6.88;;;2.38;;
63945;SDS011;50122;56.330;43.838;2023-06-14T08:13:11;9.20;;;2.33;;
63945;SDS011;50122;56.330;43.838;2023-06-14T08:15:39;10.35;;;2.47;;
63945;SDS011;50122;56.330;43.838;2023-06-14T08:18:06;7.13;;;2.13;;
63945;SDS011;50122;56.330;43.838;2023-06-14T08:20:32;7.25;;;2.33;;
63945;SDS011;50122;56.330;43.838;2023-06-14T08:23:02;5.88;;;2.20;;
63945;SDS011;50122;56.330;43.838;2023-06-14T08:25:30;9.52;;;2.30;;
63945;SDS011;50122;56.330;43.838;2023-06-14T08:27:58;6.82;;;2.47;;
63945;SDS011;50122;56.330;43.838;2023-06-14T08:30:25;6.00;;;2.17;;
63945;SDS011;50122;56.330;43.838;2023-06-14T08:32:52;24.83;;;2.97;;
63945;SDS011;50122;56.330;43.838;2023-06-14T08:35:41;9.52;;;2.30;;
63945;SDS011;50122;56.330;43.838;2023-06-14T08:38:08;42.25;;;4.00;;
63945;SDS011;50122;56.330;43.838;2023-06-14T08:40:38;12.82;;;2.80;;
63945;SDS011;50122;56.330;43.838;2023-06-14T08:43:06;4.95;;;2.30;;
63945;SDS011;50122;56.330;43.838;2023-06-14T08:45:32;8.52;;;2.30;;
63945;SDS011;50122;56.330;43.838;2023-06-14T08:48:01;5.13;;;2.60;;
63945;SDS011;50122;56.330;43.838;2023-06-14T08:50:29;8.55;;;2.10;;
63945;SDS011;50122;56.330;43.838;2023-06-14T08:53:00;8.00;;;2.40;;
63945;SDS011;50122;56.330;43.838;2023-06-14T08:55:31;33.40;;;3.08;;
63945;SDS011;50122;56.330;43.838;2023-06-14T08:58:03;5.32;;;2.40;;
63945;SDS011;50122;56.330;43.838;2023-06-14T09:00:32;4.22;;;2.28;;
63945;SDS011;50122;56.330;43.838;2023-06-14T09:03:00;8.45;;;2.35;;
63945;SDS011;50122;56.330;43.838;2023-06-14T09:05:27;7.35;;;2.15;;
63945;SDS011;50122;56.330;43.838;2023-06-14T09:07:55;7.28;;;2.33;;
63945;SDS011;50122;56.330;43.838;2023-06-14T09:10:23;6.78;;;2.20;;
63945;SDS011;50122;56.330;43.838;2023-06-14T09:12:53;6.65;;;2.33;;
63945;SDS011;50122;56.330;43.838;2023-06-14T09:15:21;7.60;;;2.10;;
63945;SDS011;50122;56.330;43.838;2023-06-14T09:17:48;7.35;;;2.50;;
63945;SDS011;50122;56.330;43.838;2023-06-14T09:20:15;5.45;;;2.00;;
63945;SDS011;50122;56.330;43.838;2023-06-14T09:22:46;7.53;;;2.20;;
63945;SDS011;50122;56.330;43.838;2023-06-14T09:25:15;28.27;;;3.60;;
63945;SDS011;50122;56.330;43.838;2023-06-14T09:28:02;7.07;;;2.40;;
63945;SDS011;50122;56.330;43.838;2023-06-14T09:30:33;9.02;;;2.15;;
63945;SDS011;50122;56.330;43.838;2023-06-14T09:32:59;6.38;;;2.10;;
63945;SDS011;50122;56.330;43.838;2023-06-14T09:35:27;4.35;;;2.05;;
63945;SDS011;50122;56.330;43.838;2023-06-14T09:37:58;4.80;;;2.10;;
63945;SDS011;50122;56.330;43.838;2023-06-14T09:40:26;4.63;;;2.28;;
63945;SDS011;50122;56.330;43.838;2023-06-14T09:42:53;6.63;;;2.78;;
63945;SDS011;50122;56.330;43.838;2023-06-14T09:45:21;6.10;;;2.30;;
63945;SDS011;50122;56.330;43.838;2023-06-14T09:47:49;5.50;;;2.10;;
63945;SDS011;50122;56.330;43.838;2023-06-14T09:50:32;6.85;;;2.35;;
63945;SDS011;50122;56.330;43.838;2023-06-14T09:53:07;17.73;;;2.95;;
63945;SDS011;50122;56.330;43.838;2023-06-14T09:55:36;6.40;;;2.15;;
63945;SDS011;50122;56.330;43.838;2023-06-14T09:58:09;5.68;;;2.10;;
63945;SDS011;50122;56.330;43.838;2023-06-14T10:00:39;4.00;;;2.20;;
63945;SDS011;50122;56.330;43.838;2023-06-14T10:03:11;6.45;;;2.28;;
63945;SDS011;50122;56.330;43.838;2023-06-14T10:05:43;6.82;;;2.63;;
63945;SDS011;50122;56.330;43.838;2023-06-14T10:08:15;6.20;;;2.20;;
63945;SDS011;50122;56.330;43.838;2023-06-14T10:10:52;8.07;;;2.30;;
63945;SDS011;50122;56.330;43.838;2023-06-14T10:13:20;9.77;;;2.40;;
63945;SDS011;50122;56.330;43.838;2023-06-14T10:23:47;5.53;;;2.33;;
63945;SDS011;50122;56.330;43.838;2023-06-14T10:26:17;11.23;;;2.20;;
63945;SDS011;50122;56.330;43.838;2023-06-14T10:31:40;6.82;;;2.30;;
63945;SDS011;50122;56.330;43.838;2023-06-14T10:39:31;6.10;;;2.47;;
63945;SDS011;50122;56.330;43.838;2023-06-14T10:42:13;7.25;;;2.22;;
63945;SDS011;50122;56.330;43.838;2023-06-14T10:44:49;152.73;;;9.05;;
63945;SDS011;50122;56.330;43.838;2023-06-14T10:47:21;5.90;;;2.22;;
63945;SDS011;50122;56.330;43.838;2023-06-14T10:49:51;6.70;;;2.20;;
63945;SDS011;50122;56.330;43.838;2023-06-14T10:52:23;4.45;;;2.20;;
63945;SDS011;50122;56.330;43.838;2023-06-14T10:57:39;7.50;;;2.20;;
63945;SDS011;50122;56.330;43.838;2023-06-14T11:00:15;4.05;;;2.05;;
63945;SDS011;50122;56.330;43.838;2023-06-14T11:05:30;5.35;;;2.10;;
63945;SDS011;50122;56.330;43.838;2023-06-14T11:10:36;7.20;;;2.15;;
63945;SDS011;50122;56.330;43.838;2023-06-14T11:13:08;5.57;;;2.20;;
63945;SDS011;50122;56.330;43.838;2023-06-14T11:15:36;7.70;;;2.30;;
63945;SDS011;50122;56.330;43.838;2023-06-14T11:18:08;5.50;;;2.45;;
63945;SDS011;50122;56.330;43.838;2023-06-14T11:20:39;4.63;;;2.05;;
63945;SDS011;50122;56.330;43.838;2023-06-14T11:23:06;4.97;;;2.10;;
63945;SDS011;50122;56.330;43.838;2023-06-14T11:25:33;6.22;;;3.08;;
63945;SDS011;50122;56.330;43.838;2023-06-14T11:28:00;8.55;;;3.22;;
63945;SDS011;50122;56.330;43.838;2023-06-14T11:30:27;5.32;;;2.15;;
63945;SDS011;50122;56.330;43.838;2023-06-14T11:32:54;5.95;;;2.17;;
63945;SDS011;50122;56.330;43.838;2023-06-14T11:35:24;7.40;;;2.60;;
63945;SDS011;50122;56.330;43.838;2023-06-14T11:37:55;6.22;;;2.17;;
63945;SDS011;50122;56.330;43.838;2023-06-14T11:40:26;5.05;;;2.20;;
63945;SDS011;50122;56.330;43.838;2023-06-14T11:43:00;4.88;;;2.10;;
63945;SDS011;50122;56.330;43.838;2023-06-14T11:45:29;3.25;;;1.95;;
63945;SDS011;50122;56.330;43.838;2023-06-14T11:47:58;4.82;;;2.10;;
63945;SDS011;50122;56.330;43.838;2023-06-14T11:50:43;4.93;;;2.38;;
63945;SDS011;50122;56.330;43.838;2023-06-14T11:53:25;4.93;;;2.50;;
63945;SDS011;50122;56.330;43.838;2023-06-14T11:55:51;6.88;;;2.60;;
63945;SDS011;50122;56.330;43.838;2023-06-14T11:58:18;8.82;;;2.28;;
63945;SDS011;50122;56.330;43.838;2023-06-14T12:00:48;5.22;;;2.40;;
63945;SDS011;50122;56.330;43.838;2023-06-14T12:03:15;3.47;;;1.92;;
63945;SDS011;50122;56.330;43.838;2023-06-14T12:05:43;3.13;;;2.00;;
63945;SDS011;50122;56.330;43.838;2023-06-14T12:08:10;6.05;;;2.13;;
63945;SDS011;50122;56.330;43.838;2023-06-14T12:10:57;5.35;;;2.15;;
63945;SDS011;50122;56.330;43.838;2023-06-14T12:13:24;5.38;;;2.10;;
63945;SDS011;50122;56.330;43.838;2023-06-14T12:15:54;3.95;;;1.98;;
63945;SDS011;50122;56.330;43.838;2023-06-14T12:18:31;5.82;;;2.35;;
63945;SDS011;50122;56.330;43.838;2023-06-14T12:21:05;10.82;;;2.50;;
63945;SDS011;50122;56.330;43.838;2023-06-14T12:26:20;5.97;;;1.90;;
63945;SDS011;50122;56.330;43.838;2023-06-14T12:28:47;6.15;;;2.20;;
63945;SDS011;50122;56.330;43.838;2023-06-14T12:31:15;4.40;;;2.00;;
63945;SDS011;50122;56.330;43.838;2023-06-14T12:33:43;5.35;;;1.90;;
63945;SDS011;50122;56.330;43.838;2023-06-14T12:36:12;6.82;;;2.30;;
63945;SDS011;50122;56.330;43.838;2023-06-14T12:38:39;5.15;;;2.17;;
63945;SDS011;50122;56.330;43.838;2023-06-14T12:41:06;3.55;;;2.10;;
63945;SDS011;50122;56.330;43.838;2023-06-14T12:43:36;5.35;;;2.10;;
63945;SDS011;50122;56.330;43.838;2023-06-14T12:46:03;7.65;;;2.30;;
63945;SDS011;50122;56.330;43.838;2023-06-14T12:48:29;4.28;;;2.10;;
63945;SDS011;50122;56.330;43.838;2023-06-14T12:50:57;6.60;;;2.15;;
63945;SDS011;50122;56.330;43.838;2023-06-14T12:53:24;6.30;;;2.13;;
63945;SDS011;50122;56.330;43.838;2023-06-14T12:55:51;4.10;;;1.90;;
63945;SDS011;50122;56.330;43.838;2023-06-14T12:58:18;6.55;;;2.13;;
63945;SDS011;50122;56.330;43.838;2023-06-14T13:00:46;3.72;;;1.98;;
63945;SDS011;50122;56.330;43.838;2023-06-14T13:03:14;4.18;;;2.00;;
63945;SDS011;50122;56.330;43.838;2023-06-14T13:05:41;4.65;;;2.00;;
63945;SDS011;50122;56.330;43.838;2023-06-14T13:08:09;6.03;;;2.10;;
63945;SDS011;50122;56.330;43.838;2023-06-14T13:10:36;5.53;;;2.53;;
63945;SDS011;50122;56.330;43.838;2023-06-14T13:13:03;9.65;;;2.45;;
63945;SDS011;50122;56.330;43.838;2023-06-14T13:15:30;4.32;;;2.08;;
63945;SDS011;50122;56.330;43.838;2023-06-14T13:17:57;29.27;;;3.15;;
63945;SDS011;50122;56.330;43.838;2023-06-14T13:20:26;7.13;;;2.28;;
63945;SDS011;50122;56.330;43.838;2023-06-14T13:22:52;9.10;;;2.17;;
63945;SDS011;50122;56.330;43.838;2023-06-14T13:25:19;9.98;;;2.38;;
63945;SDS011;50122;56.330;43.838;2023-06-14T13:27:46;5.45;;;2.20;;
63945;SDS011;50122;56.330;43.838;2023-06-14T13:30:13;4.75;;;2.10;;
63945;SDS011;50122;56.330;43.838;2023-06-14T13:32:48;3.38;;;2.10;;
63945;SDS011;50122;56.330;43.838;2023-06-14T13:35:16;28.25;;;3.20;;
63945;SDS011;50122;56.330;43.838;2023-06-14T13:37:46;4.93;;;2.13;;
63945;SDS011;50122;56.330;43.838;2023-06-14T13:40:12;9.65;;;2.20;;
63945;SDS011;50122;56.330;43.838;2023-06-14T13:42:40;4.90;;;2.08;;
63945;SDS011;50122;56.330;43.838;2023-06-14T13:45:07;3.40;;;2.08;;
63945;SDS011;50122;56.330;43.838;2023-06-14T13:47:35;4.13;;;2.00;;
63945;SDS011;50122;56.330;43.838;2023-06-14T13:50:04;6.95;;;1.85;;
63945;SDS011;50122;56.330;43.838;2023-06-14T13:52:32;3.38;;;1.92;;
63945;SDS011;50122;56.330;43.838;2023-06-14T13:54:59;6.35;;;2.17;;
63945;SDS011;50122;56.330;43.838;2023-06-14T13:57:26;4.07;;;1.90;;
63945;SDS011;50122;56.330;43.838;2023-06-14T13:59:54;3.63;;;2.00;;
63945;SDS011;50122;56.330;43.838;2023-06-14T14:02:21;6.20;;;2.10;;
63945;SDS011;50122;56.330;43.838;2023-06-14T14:04:51;7.65;;;2.10;;
63945;SDS011;50122;56.330;43.838;2023-06-14T14:07:24;7.23;;;2.20;;
63945;SDS011;50122;56.330;43.838;2023-06-14T14:09:50;6.22;;;2.00;;
63945;SDS011;50122;56.330;43.838;2023-06-14T14:12:17;6.18;;;2.30;;
63945;SDS011;50122;56.330;43.838;2023-06-14T14:14:49;3.85;;;2.63;;
63945;SDS011;50122;56.330;43.838;2023-06-14T14:17:16;12.93;;;2.38;;
63945;SDS011;50122;56.330;43.838;2023-06-14T14:19:44;4.40;;;2.20;;
63945;SDS011;50122;56.330;43.838;2023-06-14T14:22:11;4.45;;;2.10;;
63945;SDS011;50122;56.330;43.838;2023-06-14T14:24:40;4.78;;;2.03;;
63945;SDS011;50122;56.330;43.838;2023-06-14T14:27:07;5.05;;;2.00;;
63945;SDS011;50122;56.330;43.838;2023-06-14T14:29:34;6.72;;;2.28;;
63945;SDS011;50122;56.330;43.838;2023-06-14T14:32:04;5.70;;;2.20;;
63945;SDS011;50122;56.330;43.838;2023-06-14T14:34:31;6.93;;;4.07;;
63945;SDS011;50122;56.330;43.838;2023-06-14T14:36:59;3.25;;;2.20;;
63945;SDS011;50122;56.330;43.838;2023-06-14T14:39:25;5.22;;;2.05;;
63945;SDS011;50122;56.330;43.838;2023-06-14T14:41:52;4.43;;;2.10;;
63945;SDS011;50122;56.330;43.838;2023-06-14T14:44:19;4.38;;;2.13;;
63945;SDS011;50122;56.330;43.838;2023-06-14T14:46:46;5.55;;;2.38;;
63945;SDS011;50122;56.330;43.838;2023-06-14T14:49:13;17.55;;;2.53;;
63945;SDS011;50122;56.330;43.838;2023-06-14T14:51:40;7.57;;;2.38;;
63945;SDS011;50122;56.330;43.838;2023-06-14T14:54:09;5.10;;;2.13;;
63945;SDS011;50122;56.330;43.838;2023-06-14T14:56:36;6.68;;;3.20;;
63945;SDS011;50122;56.330;43.838;2023-06-14T14:59:04;17.02;;;2.60;;
63945;SDS011;50122;56.330;43.838;2023-06-14T15:01:31;10.27;;;2.55;;
63945;SDS011;50122;56.330;43.838;2023-06-14T15:04:01;8.93;;;2.45;;
63945;SDS011;50122;56.330;43.838;2023-06-14T15:06:29;6.55;;;2.30;;
63945;SDS011;50122;56.330;43.838;2023-06-14T15:08:55;3.70;;;2.05;;
63945;SDS011;50122;56.330;43.838;2023-06-14T15:11:22;4.78;;;2.10;;